Time;durP1;ratioP1;P1;durP2;ratioP2;P2;SDS_P1;SDS_P2;PMS_P1;PMS_P2;Temp;Humidity;BMP_temperature;BMP_pressure;BME280_temperature;BME280_humidity;BME280_pressure;Samples;Min_cycle;Max_cycle;Signal;HPM_P1;HPM_P2
2022/01/30 00:00:07;;;;;;;6.97;2.20;;;6.10;99.90;;;;;;7388033;19;20367;-79
2022/01/30 00:02:34;;;;;;;4.35;2.17;;;6.00;99.90;;;;;;7392096;19;20293;-79
2022/01/30 00:05:00;;;;;;;5.20;2.35;;;6.00;99.90;;;;;;7388110;19;21451;-80
2022/01/30 00:07:26;;;;;;;4.87;2.33;;;6.10;99.90;;;;;;7385229;19;20363;-77
2022/01/30 00:09:56;;;;;;;6.30;2.60;;;6.10;99.90;;;;;;7395535;19;20312;-79
2022/01/30 00:12:30;;;;;;;4.55;2.65;;;6.10;99.90;;;;;;7390772;19;20345;-83
2022/01/30 00:14:57;;;;;;;4.50;2.47;;;6.00;99.90;;;;;;7391280;19;20413;-80
2022/01/30 00:17:30;;;;;;;2.78;1.90;;;6.00;99.90;;;;;;7391498;19;20349;-80
2022/01/30 00:20:01;;;;;;;3.72;2.47;;;6.00;99.90;;;;;;7392829;19;20325;-81
2022/01/30 00:25:00;;;;;;;3.95;2.25;;;6.00;99.90;;;;;;7389639;19;20400;-79
2022/01/30 00:27:44;;;;;;;3.38;2.33;;;5.90;99.90;;;;;;7389988;19;20344;-79
2022/01/30 00:30:13;;;;;;;5.55;2.40;;;5.90;99.90;;;;;;7389719;19;20864;-82
2022/01/30 00:32:39;;;;;;;4.47;2.63;;;5.90;99.90;;;;;;7388741;19;20348;-80
2022/01/30 00:35:11;;;;;;;7.13;2.53;;;5.90;99.90;;;;;;7366054;19;20300;-85
2022/01/30 00:37:41;;;;;;;5.90;2.60;;;5.90;99.90;;;;;;7387085;19;20376;-79
2022/01/30 00:40:07;;;;;;;2.72;2.40;;;6.10;99.90;;;;;;7386683;19;20317;-80
2022/01/30 00:42:34;;;;;;;7.28;2.38;;;6.10;99.90;;;;;;7388948;19;20676;-83
2022/01/30 00:45:00;;;;;;;6.53;2.40;;;6.00;99.90;;;;;;7387330;19;20305;-80
2022/01/30 00:47:25;;;;;;;3.20;2.30;;;6.00;99.90;;;;;;7387017;19;20695;-80
2022/01/30 00:49:52;;;;;;;4.30;2.50;;;6.00;99.90;;;;;;7387084;19;20309;-79
2022/01/30 00:52:19;;;;;;;6.85;2.42;;;5.90;99.90;;;;;;7388948;19;20418;-79
2022/01/30 00:54:45;;;;;;;4.45;2.17;;;5.90;99.90;;;;;;7374269;19;20373;-79
2022/01/30 00:57:11;;;;;;;6.40;2.22;;;5.90;99.90;;;;;;7388111;19;20320;-80
2022/01/30 00:59:37;;;;;;;5.95;2.55;;;5.80;99.90;;;;;;7392585;19;20875;-80
2022/01/30 01:02:03;;;;;;;5.13;2.65;;;5.90;99.90;;;;;;7391264;19;20320;-83
2022/01/30 01:04:29;;;;;;;5.53;2.55;;;5.90;99.90;;;;;;7388490;19;20340;-80
2022/01/30 01:06:54;;;;;;;7.93;2.50;;;5.90;99.90;;;;;;7391120;19;20328;-78
2022/01/30 01:09:24;;;;;;;4.25;2.47;;;5.90;99.90;;;;;;7389276;19;20336;-80
2022/01/30 01:12:10;;;;;;;2.95;2.08;;;5.90;99.90;;;;;;7396653;19;20350;-81
2022/01/30 01:25:34;;;;;;;4.95;2.10;;;6.10;99.90;;;;;;7284834;19;2011533;-80
2022/01/30 01:27:59;;;;;;;3.55;2.28;;;6.00;99.90;;;;;;7388131;19;20333;-84
2022/01/30 01:30:25;;;;;;;4.67;2.43;;;6.00;99.90;;;;;;7389718;19;20337;-80
2022/01/30 01:32:51;;;;;;;5.20;2.20;;;6.10;99.90;;;;;;7390206;19;20336;-80
2022/01/30 01:35:17;;;;;;;4.53;2.25;;;6.00;99.90;;;;;;7386532;19;21000;-80
2022/01/30 01:37:43;;;;;;;3.20;2.15;;;6.10;99.90;;;;;;7392404;19;20319;-80
2022/01/30 01:40:09;;;;;;;7.03;2.57;;;6.00;99.90;;;;;;7391034;19;20337;-81
2022/01/30 01:42:36;;;;;;;5.03;2.67;;;5.90;99.90;;;;;;7391152;19;20676;-80
2022/01/30 01:45:02;;;;;;;4.63;2.38;;;5.90;99.90;;;;;;7387550;19;20748;-80
2022/01/30 01:47:32;;;;;;;5.17;2.23;;;5.90;99.90;;;;;;7390007;19;20971;-79
2022/01/30 01:49:57;;;;;;;7.20;2.55;;;5.90;99.90;;;;;;7385359;19;20340;-79
2022/01/30 01:52:26;;;;;;;4.78;2.38;;;6.00;99.90;;;;;;7389924;19;20344;-79
2022/01/30 01:54:58;;;;;;;3.78;2.20;;;6.00;99.90;;;;;;7388052;19;20853;-80
2022/01/30 01:57:25;;;;;;;8.32;2.17;;;5.90;99.90;;;;;;7392593;19;20289;-79
2022/01/30 02:00:10;;;;;;;5.45;2.50;;;5.90;99.90;;;;;;7291564;19;2004455;-83
2022/01/30 02:02:38;;;;;;;4.20;2.33;;;5.90;99.90;;;;;;7393261;19;20319;-79
2022/01/30 02:05:06;;;;;;;5.13;2.40;;;5.90;99.90;;;;;;7390999;19;20328;-79
2022/01/30 02:07:58;;;;;;;5.73;2.00;;;5.90;99.90;;;;;;7395288;19;20427;-79
2022/01/30 02:10:28;;;;;;;6.23;2.10;;;5.80;99.90;;;;;;7287078;19;2008564;-79
2022/01/30 02:12:56;;;;;;;3.90;2.40;;;5.90;99.90;;;;;;7390012;19;21120;-79
2022/01/30 02:25:59;;;;;;;7.38;2.30;;;6.00;99.90;;;;;;7285274;19;2009235;-79
2022/01/30 02:28:28;;;;;;;4.57;2.30;;;6.00;99.90;;;;;;7387579;19;20625;-80
2022/01/30 02:31:19;;;;;;;4.63;2.13;;;5.90;99.90;;;;;;7386074;19;20332;-78
2022/01/30 02:33:40;;;;;;;5.65;2.30;;;6.00;99.90;;;;;;7388794;19;20329;-79
2022/01/30 02:36:06;;;;;;;3.95;2.05;;;6.00;99.90;;;;;;7386266;19;20416;-78
2022/01/30 02:38:32;;;;;;;2.83;1.87;;;6.00;99.90;;;;;;7389070;19;20336;-83
2022/01/30 02:40:58;;;;;;;4.68;2.28;;;6.00;99.90;;;;;;7376858;19;20334;-80
2022/01/30 02:43:32;;;;;;;3.17;1.87;;;6.10;99.90;;;;;;7386171;19;20309;-81
2022/01/30 02:46:08;;;;;;;4.78;2.10;;;6.10;99.90;;;;;;7387261;19;20331;-79
2022/01/30 02:48:56;;;;;;;4.68;1.95;;;6.10;99.90;;;;;;7388429;19;20341;-80
2022/01/30 02:51:24;;;;;;;4.32;2.28;;;6.10;99.90;;;;;;7386549;19;20311;-79
2022/01/30 02:54:03;;;;;;;4.00;2.08;;;6.00;99.90;;;;;;7386648;19;20654;-83
2022/01/30 02:56:30;;;;;;;3.90;1.95;;;6.00;99.90;;;;;;7391061;19;20353;-79
2022/01/30 02:58:55;;;;;;;5.63;2.13;;;6.10;99.90;;;;;;7376077;19;20293;-81
2022/01/30 03:01:21;;;;;;;6.13;2.30;;;6.10;99.90;;;;;;7390429;19;20410;-80
2022/01/30 03:03:47;;;;;;;4.60;2.13;;;6.10;99.90;;;;;;7386632;19;20320;-79
2022/01/30 03:06:12;;;;;;;6.78;2.20;;;6.10;99.90;;;;;;7392150;19;20335;-79
2022/01/30 03:08:38;;;;;;;2.73;2.10;;;6.10;99.90;;;;;;7394683;19;20313;-78
2022/01/30 03:11:04;;;;;;;3.40;2.20;;;6.10;99.90;;;;;;7391880;19;20301;-79
2022/01/30 03:13:30;;;;;;;5.20;2.10;;;6.10;99.90;;;;;;7391060;19;20662;-83
2022/01/30 03:15:56;;;;;;;4.25;2.30;;;6.00;99.90;;;;;;7386886;19;20311;-81
2022/01/30 03:18:22;;;;;;;4.03;2.40;;;6.20;99.90;;;;;;7389190;19;20304;-78
2022/01/30 03:20:48;;;;;;;5.28;2.17;;;6.10;99.90;;;;;;7388315;19;20359;-78
2022/01/30 03:23:14;;;;;;;3.70;2.08;;;6.10;99.90;;;;;;7391267;19;20365;-81
2022/01/30 03:25:40;;;;;;;2.90;2.17;;;6.10;99.90;;;;;;7390087;19;20296;-78
2022/01/30 03:28:20;;;;;;;8.15;2.30;;;6.10;99.90;;;;;;7289149;19;2009637;-78
2022/01/30 03:30:53;;;;;;;5.80;2.05;;;6.10;99.90;;;;;;7388613;19;20321;-79
2022/01/30 03:33:27;;;;;;;2.70;1.77;;;6.10;99.90;;;;;;7388293;19;20348;-78
2022/01/30 03:35:53;;;;;;;2.97;2.03;;;6.00;99.90;;;;;;7388087;19;20317;-81
2022/01/30 03:38:20;;;;;;;6.10;2.30;;;6.10;99.90;;;;;;7389843;19;21164;-79
2022/01/30 03:40:46;;;;;;;5.32;2.38;;;6.10;99.90;;;;;;7388689;19;20327;-79
2022/01/30 03:43:13;;;;;;;5.75;2.03;;;6.10;99.90;;;;;;7397106;19;20307;-79
2022/01/30 03:45:38;;;;;;;3.25;2.15;;;6.10;99.90;;;;;;7395123;19;20387;-78
2022/01/30 03:48:04;;;;;;;3.07;1.87;;;6.00;99.90;;;;;;7395342;19;20317;-80
2022/01/30 03:50:49;;;;;;;5.53;2.08;;;6.00;99.90;;;;;;7398240;19;20376;-78
2022/01/30 03:53:15;;;;;;;3.80;2.30;;;6.00;99.90;;;;;;7397656;19;20320;-81
2022/01/30 03:55:41;;;;;;;4.20;2.13;;;6.00;99.90;;;;;;7391455;19;20344;-80
2022/01/30 03:58:11;;;;;;;3.38;2.05;;;6.00;99.90;;;;;;7394404;19;20350;-77
2022/01/30 04:00:38;;;;;;;3.25;2.22;;;6.00;99.90;;;;;;7373344;19;20330;-78
2022/01/30 04:03:05;;;;;;;3.08;1.88;;;6.00;99.90;;;;;;7393254;19;20305;-77
2022/01/30 04:05:31;;;;;;;2.90;2.03;;;5.90;99.90;;;;;;7392935;19;20852;-79
2022/01/30 04:08:01;;;;;;;4.35;2.30;;;5.90;99.90;;;;;;7395091;19;20324;-79
2022/01/30 04:10:36;;;;;;;6.07;2.28;;;5.90;99.90;;;;;;7395528;19;20325;-80
2022/01/30 04:13:31;;;;;;;5.57;2.43;;;5.80;99.90;;;;;;7293364;19;2004426;-78
2022/01/30 04:16:09;;;;;;;2.78;2.00;;;5.90;99.90;;;;;;7293100;19;2004493;-80
2022/01/30 04:18:57;;;;;;;3.83;2.10;;;5.90;99.90;;;;;;7292860;19;2009007;-78
2022/01/30 04:21:46;;;;;;;5.60;2.47;;;5.90;99.90;;;;;;7385834;19;20348;-79
2022/01/30 04:24:32;;;;;;;6.97;2.63;;;6.00;99.90;;;;;;7290740;19;2004341;-78
2022/01/30 04:27:19;;;;;;;4.65;2.42;;;5.90;99.90;;;;;;7292773;19;2010163;-78
2022/01/30 04:30:09;;;;;;;4.93;2.50;;;5.90;99.90;;;;;;7394685;19;20441;-78
2022/01/30 04:32:54;;;;;;;5.10;2.50;;;5.80;99.90;;;;;;7294592;19;2006386;-78
2022/01/30 04:35:44;;;;;;;4.25;2.13;;;5.80;99.90;;;;;;7293630;19;2005750;-79
2022/01/30 04:38:40;;;;;;;5.38;2.35;;;5.60;99.90;;;;;;7396472;19;20352;-78
2022/01/30 04:56:53;;;;;;;3.17;2.13;;;5.00;99.90;;;;;;7394083;19;20312;-79
2022/01/30 05:00:06;;;;;;;4.55;2.20;;;5.00;99.90;;;;;;7189095;19;2005324;-77
2022/01/30 05:08:16;;;;;;;6.63;2.43;;;5.00;99.90;;;;;;7290766;19;2004727;-77
2022/01/30 05:10:49;;;;;;;5.93;2.00;;;5.00;99.90;;;;;;7393249;19;20324;-81
2022/01/30 05:13:39;;;;;;;4.63;2.20;;;5.10;99.90;;;;;;7392336;19;20340;-77
2022/01/30 05:16:25;;;;;;;6.18;2.45;;;5.00;99.90;;;;;;7389826;19;20333;-77
2022/01/30 05:19:07;;;;;;;5.78;2.50;;;5.10;99.90;;;;;;7289815;19;2004600;-77
2022/01/30 05:21:53;;;;;;;5.50;2.40;;;5.00;99.90;;;;;;7290278;19;2004197;-76
2022/01/30 05:24:33;;;;;;;4.88;1.98;;;5.10;99.90;;;;;;7391060;19;20376;-78
2022/01/30 05:27:31;;;;;;;4.10;2.58;;;5.00;99.90;;;;;;7293462;19;2004424;-80
2022/01/30 05:30:15;;;;;;;4.38;2.30;;;5.00;99.90;;;;;;7291238;19;2004421;-78
2022/01/30 05:32:59;;;;;;;7.10;2.33;;;4.90;99.90;;;;;;7397493;19;20316;-80
2022/01/30 05:35:55;;;;;;;4.67;2.30;;;4.80;99.90;;;;;;7298364;19;2009806;-79
2022/01/30 05:38:44;;;;;;;3.88;2.03;;;4.70;99.90;;;;;;7301889;19;2004456;-78
2022/01/30 05:41:30;;;;;;;2.07;1.80;;;4.80;99.90;;;;;;7391774;19;20300;-78
2022/01/30 05:44:19;;;;;;;3.40;2.28;;;4.80;99.90;;;;;;7395403;19;20636;-77
2022/01/30 05:47:22;;;;;;;1.93;1.70;;;4.90;99.90;;;;;;7291679;19;2004543;-76
2022/01/30 05:49:54;;;;;;;6.82;2.13;;;4.90;99.90;;;;;;7375740;19;20304;-79
2022/01/30 05:52:37;;;;;;;3.33;2.22;;;5.00;99.90;;;;;;7391926;19;20316;-79
2022/01/30 05:55:16;;;;;;;5.18;2.08;;;5.10;99.90;;;;;;7390870;19;20358;-78
2022/01/30 05:57:42;;;;;;;7.63;2.30;;;5.10;99.90;;;;;;7393756;19;20336;-79
2022/01/30 06:00:13;;;;;;;3.30;2.20;;;5.20;99.90;;;;;;7391692;19;20322;-79
2022/01/30 06:02:58;;;;;;;7.30;2.40;;;5.20;99.90;;;;;;7290303;19;2004447;-78
2022/01/30 06:05:25;;;;;;;4.40;2.35;;;5.20;99.90;;;;;;7389463;19;20305;-77
2022/01/30 06:07:53;;;;;;;5.43;2.40;;;5.20;99.90;;;;;;7391459;19;20316;-80
2022/01/30 06:10:20;;;;;;;3.70;2.13;;;5.20;99.90;;;;;;7389594;19;20313;-79
2022/01/30 06:12:46;;;;;;;6.37;2.43;;;5.20;99.90;;;;;;7397973;19;20335;-79
2022/01/30 06:15:13;;;;;;;4.50;2.42;;;5.30;99.90;;;;;;7399255;19;20316;-81
2022/01/30 06:17:40;;;;;;;4.75;2.17;;;5.30;99.90;;;;;;7396031;19;20348;-79
2022/01/30 06:20:26;;;;;;;3.77;2.13;;;5.30;99.90;;;;;;7390967;19;20320;-78
2022/01/30 06:23:07;;;;;;;3.63;2.22;;;5.30;99.90;;;;;;7294562;19;2004559;-83
2022/01/30 06:26:11;;;;;;;2.45;1.92;;;5.30;99.90;;;;;;7288913;19;2005488;-78
2022/01/30 06:28:55;;;;;;;6.23;3.30;;;5.30;99.90;;;;;;7291708;19;2004429;-79
2022/01/30 06:31:39;;;;;;;4.00;2.50;;;5.30;99.90;;;;;;7294456;19;2004374;-79
2022/01/30 06:34:24;;;;;;;3.20;1.75;;;5.30;99.90;;;;;;7391870;19;20313;-79
2022/01/30 06:37:18;;;;;;;3.83;2.30;;;5.40;99.90;;;;;;7392537;19;20346;-78
2022/01/30 06:39:53;;;;;;;3.63;2.70;;;5.40;99.90;;;;;;7389757;19;20333;-77
2022/01/30 06:42:30;;;;;;;8.40;2.85;;;5.40;99.90;;;;;;7388816;19;20719;-81
2022/01/30 06:45:18;;;;;;;4.72;2.42;;;5.40;99.90;;;;;;7286588;19;2004447;-82
2022/01/30 06:48:03;;;;;;;5.55;2.35;;;5.40;99.90;;;;;;7286597;19;2004466;-78
2022/01/30 06:50:47;;;;;;;6.10;2.47;;;5.40;99.90;;;;;;7389657;19;20931;-79
2022/01/30 06:53:38;;;;;;;8.75;2.40;;;5.40;99.90;;;;;;7286412;19;2004538;-78
2022/01/30 06:56:23;;;;;;;4.43;2.22;;;5.40;99.90;;;;;;7283940;19;2004618;-77
2022/01/30 06:59:07;;;;;;;4.67;2.80;;;5.40;99.90;;;;;;7388242;19;20308;-79
2022/01/30 07:01:52;;;;;;;4.65;2.60;;;5.40;99.90;;;;;;7388678;19;20330;-78
2022/01/30 07:04:37;;;;;;;3.88;2.53;;;5.50;99.90;;;;;;7285657;19;2004622;-80
2022/01/30 07:07:18;;;;;;;4.40;2.70;;;5.50;99.90;;;;;;7286816;19;2006928;-78
2022/01/30 07:09:44;;;;;;;3.97;2.60;;;5.50;99.90;;;;;;7388242;19;20337;-81
2022/01/30 07:12:10;;;;;;;5.47;2.65;;;5.50;99.90;;;;;;7390786;19;20341;-79
2022/01/30 07:14:36;;;;;;;4.47;2.50;;;5.60;99.90;;;;;;7387145;19;20312;-78
2022/01/30 07:17:01;;;;;;;5.60;2.60;;;5.50;99.90;;;;;;7389168;19;20312;-78
2022/01/30 07:19:27;;;;;;;5.55;2.67;;;5.60;99.90;;;;;;7396230;19;20320;-79
2022/01/30 07:21:53;;;;;;;8.37;3.13;;;5.60;99.90;;;;;;7399036;19;20320;-79
2022/01/30 07:24:18;;;;;;;4.80;2.55;;;5.60;99.90;;;;;;7400238;19;20313;-81
2022/01/30 07:26:44;;;;;;;4.13;2.30;;;5.60;99.90;;;;;;7400916;19;20879;-80
2022/01/30 07:29:10;;;;;;;5.97;2.17;;;5.60;99.90;;;;;;7393633;19;20371;-78
2022/01/30 07:31:35;;;;;;;6.45;2.58;;;5.60;99.90;;;;;;7393317;19;20359;-78
2022/01/30 07:34:01;;;;;;;5.00;2.63;;;5.60;99.90;;;;;;7394473;19;20309;-78
2022/01/30 07:36:27;;;;;;;4.50;2.75;;;5.60;99.90;;;;;;7391994;19;20347;-76
2022/01/30 07:38:53;;;;;;;4.03;2.17;;;5.60;99.90;;;;;;7389325;19;20941;-77
2022/01/30 07:41:19;;;;;;;6.78;2.83;;;5.60;99.90;;;;;;7390731;19;20681;-77
2022/01/30 07:43:45;;;;;;;6.93;2.75;;;5.70;99.90;;;;;;7392693;19;20344;-79
2022/01/30 07:46:11;;;;;;;4.33;2.50;;;5.70;99.90;;;;;;7396773;19;20330;-77
2022/01/30 07:48:36;;;;;;;3.67;2.30;;;5.70;99.90;;;;;;7395220;19;20379;-77
2022/01/30 07:51:02;;;;;;;4.47;2.43;;;5.70;99.90;;;;;;7391872;19;20360;-79
2022/01/30 07:53:28;;;;;;;3.17;2.58;;;5.70;99.90;;;;;;7391731;19;20352;-77
2022/01/30 07:55:54;;;;;;;5.25;2.53;;;5.60;99.90;;;;;;7389647;19;20321;-78
2022/01/30 07:58:20;;;;;;;5.30;2.70;;;5.60;99.90;;;;;;7392808;19;20799;-78
2022/01/30 08:00:45;;;;;;;4.47;2.40;;;5.60;99.90;;;;;;7393771;19;20317;-79
2022/01/30 08:03:11;;;;;;;5.47;2.83;;;5.70;99.90;;;;;;7394326;19;20345;-79
2022/01/30 08:05:38;;;;;;;5.63;3.23;;;5.60;99.90;;;;;;7393594;19;20296;-78
2022/01/30 08:08:05;;;;;;;5.00;2.53;;;5.60;99.90;;;;;;7393043;19;20323;-77
2022/01/30 08:10:30;;;;;;;4.40;2.50;;;5.60;99.90;;;;;;7391609;19;20656;-81
2022/01/30 08:12:56;;;;;;;4.22;2.70;;;5.60;99.90;;;;;;7394686;19;20335;-78
2022/01/30 08:15:22;;;;;;;4.83;2.53;;;5.60;99.90;;;;;;7396543;19;20320;-79
2022/01/30 08:17:48;;;;;;;7.82;2.90;;;5.70;99.90;;;;;;7398010;19;20320;-84
2022/01/30 08:20:14;;;;;;;5.00;2.38;;;5.70;99.90;;;;;;7397133;19;20965;-79
2022/01/30 08:22:50;;;;;;;4.73;2.63;;;5.70;99.90;;;;;;7394434;19;20340;-78
2022/01/30 08:25:19;;;;;;;5.80;2.60;;;5.70;99.90;;;;;;7391305;19;20317;-80
2022/01/30 08:27:45;;;;;;;6.43;2.55;;;5.70;99.90;;;;;;7390175;19;20376;-78
2022/01/30 08:30:11;;;;;;;6.88;3.13;;;5.90;99.90;;;;;;7390449;19;20309;-77
2022/01/30 08:32:38;;;;;;;6.83;2.80;;;5.80;99.90;;;;;;7389679;19;20742;-78
2022/01/30 08:35:05;;;;;;;8.67;2.80;;;5.80;99.90;;;;;;7391360;19;20311;-76
2022/01/30 08:37:30;;;;;;;8.95;3.05;;;5.80;99.90;;;;;;7393356;19;20293;-79
2022/01/30 08:39:56;;;;;;;6.90;2.97;;;5.90;99.90;;;;;;7374930;19;20696;-76
2022/01/30 08:42:22;;;;;;;5.65;2.97;;;5.80;99.90;;;;;;7394024;19;20843;-77
2022/01/30 08:44:47;;;;;;;4.43;2.77;;;5.80;99.90;;;;;;7392882;19;20855;-78
2022/01/30 08:47:13;;;;;;;6.88;3.42;;;5.80;99.90;;;;;;7390935;19;20835;-80
2022/01/30 08:49:39;;;;;;;8.23;3.07;;;5.80;99.90;;;;;;7393095;19;20694;-77
2022/01/30 08:52:04;;;;;;;7.65;2.97;;;5.80;99.90;;;;;;7389856;19;20311;-77
2022/01/30 08:54:30;;;;;;;6.70;2.95;;;5.80;99.90;;;;;;7388635;19;20353;-78
2022/01/30 08:56:56;;;;;;;11.20;2.97;;;5.80;99.90;;;;;;7393257;19;20329;-78
2022/01/30 08:59:21;;;;;;;6.50;3.15;;;5.70;99.90;;;;;;7388370;19;20325;-82
2022/01/30 09:01:47;;;;;;;3.93;2.60;;;5.70;99.90;;;;;;7389747;19;20309;-78
2022/01/30 09:04:14;;;;;;;7.38;2.90;;;5.70;99.90;;;;;;7393105;19;20320;-78
2022/01/30 09:06:39;;;;;;;7.70;3.13;;;5.70;99.90;;;;;;7394283;19;20418;-77
2022/01/30 09:09:05;;;;;;;4.07;2.58;;;5.80;99.90;;;;;;7392686;19;20656;-77
2022/01/30 09:11:32;;;;;;;5.23;3.03;;;5.70;99.90;;;;;;7393448;19;20323;-77
2022/01/30 09:13:58;;;;;;;5.38;2.95;;;5.80;99.90;;;;;;7393516;19;20312;-79
2022/01/30 09:16:23;;;;;;;6.30;2.80;;;5.80;99.90;;;;;;7375504;19;20364;-77
2022/01/30 09:18:49;;;;;;;3.88;2.58;;;5.90;99.90;;;;;;7395917;19;20420;-80
2022/01/30 09:21:15;;;;;;;7.03;3.13;;;5.90;99.90;;;;;;7392247;19;20392;-81
2022/01/30 09:23:40;;;;;;;4.55;2.90;;;5.90;99.90;;;;;;7390208;19;21152;-77
2022/01/30 09:26:09;;;;;;;4.53;2.67;;;5.90;99.90;;;;;;7391083;19;20893;-78
2022/01/30 09:28:34;;;;;;;5.67;3.00;;;5.90;99.90;;;;;;7388138;19;20665;-78
2022/01/30 09:31:00;;;;;;;4.10;2.75;;;5.90;99.90;;;;;;7389810;19;20323;-78
2022/01/30 09:33:26;;;;;;;8.33;3.33;;;5.90;99.90;;;;;;7389487;19;20348;-79
2022/01/30 09:35:51;;;;;;;5.88;2.78;;;5.90;99.90;;;;;;7368310;19;20372;-77
2022/01/30 09:38:17;;;;;;;5.47;2.83;;;5.90;99.90;;;;;;7390935;19;20320;-81
2022/01/30 09:40:43;;;;;;;4.93;2.73;;;6.00;99.90;;;;;;7388181;19;20329;-79
2022/01/30 09:43:09;;;;;;;5.97;3.03;;;6.10;99.90;;;;;;7388331;19;20316;-80
2022/01/30 09:45:34;;;;;;;4.50;2.78;;;6.10;99.90;;;;;;7386397;19;20343;-83
2022/01/30 09:48:00;;;;;;;5.53;2.90;;;6.10;99.90;;;;;;7387875;19;20337;-78
2022/01/30 09:50:26;;;;;;;4.57;2.75;;;6.10;99.90;;;;;;7385955;19;20344;-79
2022/01/30 09:52:51;;;;;;;3.67;2.43;;;6.10;99.90;;;;;;7388299;19;20312;-78
2022/01/30 09:55:17;;;;;;;8.37;2.80;;;6.20;99.90;;;;;;7387166;19;20309;-78
2022/01/30 09:57:43;;;;;;;4.97;2.50;;;6.10;99.90;;;;;;7389246;19;20351;-78
2022/01/30 10:00:09;;;;;;;6.87;3.00;;;6.10;99.90;;;;;;7388144;19;20657;-78
2022/01/30 10:02:35;;;;;;;10.10;3.38;;;6.10;99.90;;;;;;7388041;19;20683;-78
2022/01/30 10:05:00;;;;;;;4.23;2.63;;;6.00;99.90;;;;;;7392407;19;20360;-77
2022/01/30 10:07:49;;;;;;;7.43;3.08;;;6.00;99.90;;;;;;7392588;19;20757;-78
2022/01/30 10:10:17;;;;;;;5.03;2.50;;;6.00;99.90;;;;;;7287214;19;2009715;-78
2022/01/30 10:13:17;;;;;;;4.43;2.90;;;6.00;99.90;;;;;;7388587;19;20316;-80
2022/01/30 10:15:52;;;;;;;7.43;3.03;;;6.10;99.90;;;;;;7282637;19;2008921;-78
2022/01/30 10:18:19;;;;;;;5.03;3.00;;;6.10;99.90;;;;;;7386036;19;20400;-79
2022/01/30 10:20:45;;;;;;;5.28;2.85;;;6.20;99.90;;;;;;7384775;19;20336;-78
2022/01/30 10:23:11;;;;;;;6.70;2.88;;;6.30;99.90;;;;;;7386836;19;20432;-78
2022/01/30 10:25:39;;;;;;;4.30;2.70;;;6.30;99.90;;;;;;7387418;19;20344;-78
2022/01/30 10:28:22;;;;;;;7.10;2.90;;;6.30;99.90;;;;;;7386602;19;20320;-78
2022/01/30 10:30:52;;;;;;;11.80;3.00;;;6.30;99.90;;;;;;7386506;19;20879;-77
2022/01/30 10:33:22;;;;;;;6.95;2.85;;;6.40;99.90;;;;;;7382254;19;20308;-78
2022/01/30 10:35:56;;;;;;;4.57;2.80;;;6.30;99.90;;;;;;7386993;19;20331;-78
2022/01/30 10:38:35;;;;;;;7.80;3.13;;;6.30;99.90;;;;;;7282434;19;2017829;-81
2022/01/30 10:41:31;;;;;;;8.88;2.97;;;6.30;99.90;;;;;;7284872;19;2009700;-79
2022/01/30 10:43:58;;;;;;;4.60;2.78;;;6.20;99.90;;;;;;7272251;19;2004740;-78
2022/01/30 10:46:27;;;;;;;4.90;3.15;;;6.20;99.90;;;;;;7386375;19;20337;-80
2022/01/30 10:49:07;;;;;;;6.30;3.20;;;6.20;99.90;;;;;;7389042;19;20308;-78
2022/01/30 10:51:32;;;;;;;7.20;2.75;;;6.20;99.90;;;;;;7283670;19;2020092;-77
2022/01/30 10:54:08;;;;;;;5.55;2.83;;;6.30;99.90;;;;;;7387923;19;20324;-78
2022/01/30 10:56:34;;;;;;;4.45;2.58;;;6.30;99.90;;;;;;7385029;19;20369;-78
2022/01/30 10:59:16;;;;;;;4.67;2.63;;;6.30;99.90;;;;;;7389367;19;20309;-79
2022/01/30 11:01:46;;;;;;;5.70;2.93;;;6.30;99.90;;;;;;7388232;19;20335;-78
2022/01/30 11:04:21;;;;;;;6.20;2.93;;;6.30;99.90;;;;;;7383700;19;20456;-78
2022/01/30 11:06:46;;;;;;;9.10;3.07;;;6.30;99.90;;;;;;7384306;19;20425;-77
2022/01/30 11:09:14;;;;;;;7.27;3.30;;;6.30;99.90;;;;;;7380318;19;20377;-78
2022/01/30 11:11:47;;;;;;;5.03;3.13;;;6.20;99.90;;;;;;7381554;19;20337;-80
2022/01/30 11:14:16;;;;;;;4.40;3.20;;;6.20;99.90;;;;;;7381896;19;20331;-78
2022/01/30 11:19:27;;;;;;;6.37;3.33;;;6.30;99.90;;;;;;7282626;19;2004462;-78
2022/01/30 11:22:12;;;;;;;7.38;2.90;;;6.30;99.90;;;;;;7385963;19;20313;-77
2022/01/30 11:24:48;;;;;;;5.50;2.88;;;6.20;99.90;;;;;;7280538;19;2020115;-78
2022/01/30 11:27:17;;;;;;;6.75;3.47;;;6.20;99.90;;;;;;7280071;19;2020213;-77
2022/01/30 11:29:43;;;;;;;6.22;3.00;;;6.30;99.90;;;;;;7380804;19;20324;-78
2022/01/30 11:32:08;;;;;;;6.20;3.07;;;6.30;99.90;;;;;;7383516;19;20332;-78
2022/01/30 11:34:35;;;;;;;8.77;3.20;;;6.30;99.90;;;;;;7382006;19;20309;-81
2022/01/30 11:37:01;;;;;;;8.57;3.40;;;6.30;99.90;;;;;;7382325;19;20332;-77
2022/01/30 11:39:27;;;;;;;5.03;3.03;;;6.30;99.90;;;;;;7382065;19;20379;-77
2022/01/30 11:42:08;;;;;;;7.27;3.63;;;6.20;99.90;;;;;;7388067;19;20377;-78
2022/01/30 11:44:34;;;;;;;6.03;3.27;;;6.20;99.90;;;;;;7281272;19;2019894;-80
2022/01/30 11:47:02;;;;;;;8.03;3.40;;;6.20;99.90;;;;;;7383148;19;20316;-78
2022/01/30 11:49:40;;;;;;;8.35;3.55;;;6.20;99.90;;;;;;7386454;19;20312;-79
2022/01/30 11:52:09;;;;;;;11.02;3.22;;;6.20;99.90;;;;;;7387683;19;20316;-80
2022/01/30 11:54:40;;;;;;;6.97;3.42;;;6.20;99.90;;;;;;7384445;19;20354;-77
2022/01/30 11:57:18;;;;;;;7.57;3.83;;;6.20;99.90;;;;;;7382905;19;20337;-77
2022/01/30 11:59:44;;;;;;;6.60;3.67;;;6.20;99.90;;;;;;7381842;19;20313;-77
2022/01/30 12:02:25;;;;;;;8.37;3.60;;;6.30;99.90;;;;;;7384328;19;20894;-77
2022/01/30 12:04:54;;;;;;;7.75;3.58;;;6.50;99.90;;;;;;7388643;19;20353;-78
2022/01/30 12:07:45;;;;;;;8.52;3.35;;;6.50;99.90;;;;;;7390323;19;20388;-79
2022/01/30 12:10:26;;;;;;;6.68;3.67;;;6.60;99.90;;;;;;7390069;19;20309;-79
2022/01/30 12:12:58;;;;;;;6.18;3.20;;;6.80;99.90;;;;;;7289601;19;2018296;-78
2022/01/30 12:15:43;;;;;;;7.50;3.33;;;6.70;99.90;;;;;;7390280;19;20879;-77
2022/01/30 12:18:09;;;;;;;7.43;3.38;;;6.70;99.90;;;;;;7286291;19;2020180;-78
2022/01/30 12:20:53;;;;;;;7.40;4.07;;;6.70;99.90;;;;;;7385043;19;20355;-78
2022/01/30 12:23:25;;;;;;;8.93;3.70;;;6.70;99.90;;;;;;7391799;19;20335;-79
2022/01/30 12:25:56;;;;;;;8.27;3.85;;;6.60;99.90;;;;;;7391239;19;21264;-78
2022/01/30 12:28:42;;;;;;;8.63;4.07;;;6.50;99.90;;;;;;7388634;19;20352;-77
2022/01/30 12:31:34;;;;;;;9.20;3.78;;;6.60;99.90;;;;;;7377955;19;20348;-78
2022/01/30 12:34:05;;;;;;;8.07;3.63;;;6.60;99.90;;;;;;7286294;19;2010857;-78
2022/01/30 12:36:37;;;;;;;5.70;3.58;;;6.50;99.90;;;;;;7387996;19;20307;-78
2022/01/30 12:39:16;;;;;;;3.78;2.83;;;6.60;99.90;;;;;;7388521;19;20331;-78
2022/01/30 12:41:42;;;;;;;6.03;3.05;;;6.60;99.90;;;;;;7388312;19;20305;-79
2022/01/30 12:44:12;;;;;;;7.80;3.47;;;6.70;99.90;;;;;;7390315;19;20341;-80
2022/01/30 12:46:39;;;;;;;7.22;3.53;;;6.60;99.90;;;;;;7387145;19;20353;-79
2022/01/30 12:49:06;;;;;;;10.02;3.97;;;6.60;99.90;;;;;;7390252;19;20321;-78
2022/01/30 12:51:31;;;;;;;8.65;3.80;;;6.60;99.90;;;;;;7388467;19;21254;-79
2022/01/30 12:53:58;;;;;;;11.63;4.20;;;6.50;99.90;;;;;;7388667;19;20334;-78
2022/01/30 12:56:24;;;;;;;10.20;4.43;;;6.50;99.90;;;;;;7387724;19;20360;-81
2022/01/30 12:58:49;;;;;;;8.83;3.83;;;6.60;99.90;;;;;;7388942;19;20327;-78
2022/01/30 13:01:15;;;;;;;8.27;3.60;;;6.50;99.90;;;;;;7388980;19;20341;-80
2022/01/30 13:03:42;;;;;;;8.20;4.40;;;6.50;99.90;;;;;;7387552;19;21024;-78
2022/01/30 13:06:07;;;;;;;9.25;3.88;;;6.60;99.90;;;;;;7389169;19;20650;-78
2022/01/30 13:08:50;;;;;;;11.93;4.50;;;6.50;99.90;;;;;;7388163;19;20321;-80
2022/01/30 13:11:23;;;;;;;8.57;3.90;;;6.50;99.90;;;;;;7280102;19;2013003;-79
2022/01/30 13:13:55;;;;;;;5.85;3.60;;;6.50;99.90;;;;;;7387276;19;20935;-79
2022/01/30 13:16:31;;;;;;;8.33;4.10;;;6.40;99.90;;;;;;7385400;19;20313;-78
2022/01/30 13:18:57;;;;;;;5.95;3.40;;;6.40;99.90;;;;;;7386837;19;20316;-82
2022/01/30 13:21:29;;;;;;;9.40;4.18;;;6.40;99.90;;;;;;7388186;19;20352;-78
2022/01/30 13:23:54;;;;;;;8.23;3.85;;;6.40;99.90;;;;;;7386794;19;20313;-79
2022/01/30 13:26:36;;;;;;;8.38;3.75;;;6.40;99.90;;;;;;7389424;19;20320;-78
2022/01/30 13:29:06;;;;;;;9.40;4.13;;;6.40;99.90;;;;;;7286786;19;2020283;-77
2022/01/30 13:31:31;;;;;;;6.65;3.92;;;6.40;99.90;;;;;;7388029;19;20493;-79
2022/01/30 13:34:26;;;;;;;8.25;3.88;;;6.40;99.90;;;;;;7386912;19;20361;-77
2022/01/30 13:37:04;;;;;;;9.57;3.95;;;6.30;99.90;;;;;;7281746;19;2008088;-78
2022/01/30 13:39:35;;;;;;;17.08;5.15;;;6.30;99.90;;;;;;7288717;19;2013243;-80
2022/01/30 13:46:53;;;;;;;10.52;4.50;;;6.30;99.90;;;;;;7284550;19;2009109;-83
2022/01/30 13:48:02;;;;;;;7.35;3.90;;;6.40;99.90;;;;;;7389881;19;20408;-77
2022/01/30 13:50:31;;;;;;;13.02;4.80;;;6.30;99.90;;;;;;7385783;19;20961;-78
2022/01/30 13:53:07;;;;;;;11.20;4.60;;;6.40;99.90;;;;;;7386339;19;21174;-77
2022/01/30 13:55:34;;;;;;;10.02;4.40;;;6.30;99.90;;;;;;7386685;19;20415;-81
2022/01/30 13:58:00;;;;;;;10.13;4.43;;;6.40;99.90;;;;;;7391156;19;20341;-79
2022/01/30 14:00:31;;;;;;;13.05;4.78;;;6.40;99.90;;;;;;7385980;19;26022;-77
2022/01/30 14:03:06;;;;;;;7.37;4.17;;;6.50;99.90;;;;;;7389853;19;20719;-80
2022/01/30 14:05:34;;;;;;;8.93;4.50;;;6.50;99.90;;;;;;7386143;19;20354;-79
2022/01/30 14:08:00;;;;;;;9.43;4.05;;;6.50;99.90;;;;;;7386486;19;20300;-78